Time;durP1;ratioP1;P1;durP2;ratioP2;P2;SDS_P1;SDS_P2;PMS_P1;PMS_P2;Temp;Humidity;BMP_temperature;BMP_pressure;BME280_temperature;BME280_humidity;BME280_pressure;Samples;Min_cycle;Max_cycle;Signal;HPM_P1;HPM_P2
2021/11/09 00:00:34;;;;;;;13.88;6.97;;;-1.50;99.90;;;;;;2074520;28;20228;-65
2021/11/09 00:01:44;;;;;;;11.70;6.10;;;-1.40;99.90;;;;;;2074352;28;20172;-65
2021/11/09 00:02:46;;;;;;;14.40;6.32;;;-1.40;99.90;;;;;;2074498;28;20242;-65
2021/11/09 00:03:51;;;;;;;14.40;6.65;;;-1.40;99.90;;;;;;2074571;28;20188;-65
2021/11/09 00:04:56;;;;;;;11.20;6.70;;;-1.50;99.90;;;;;;2074356;28;20197;-65
2021/11/09 00:06:06;;;;;;;12.70;6.28;;;-1.50;99.90;;;;;;2074721;28;20227;-65
2021/11/09 00:07:25;;;;;;;17.88;6.63;;;-1.50;99.90;;;;;;2074751;28;20169;-65
2021/11/09 00:08:32;;;;;;;15.25;7.03;;;-1.50;99.90;;;;;;2074409;28;20211;-65
2021/11/09 00:09:54;;;;;;;15.20;6.90;;;-1.50;99.90;;;;;;2082349;28;20293;-65
2021/11/09 00:10:53;;;;;;;10.63;5.78;;;-1.50;99.90;;;;;;2082565;28;20652;-65
2021/11/09 00:11:54;;;;;;;11.43;5.40;;;-1.50;99.90;;;;;;2082478;28;20215;-65
2021/11/09 00:13:02;;;;;;;9.90;5.67;;;-1.50;99.90;;;;;;2082552;28;20211;-65
2021/11/09 00:14:03;;;;;;;10.77;6.10;;;-1.60;99.80;;;;;;2082751;28;20301;-65
2021/11/09 00:15:08;;;;;;;12.00;5.75;;;-1.50;99.90;;;;;;2082606;28;20183;-65
2021/11/09 00:16:09;;;;;;;13.45;6.43;;;-1.60;99.90;;;;;;2082568;28;20266;-64
2021/11/09 00:17:10;;;;;;;11.57;6.50;;;-1.50;99.90;;;;;;2082565;28;20238;-65
2021/11/09 00:18:11;;;;;;;14.83;6.27;;;-1.50;99.90;;;;;;2082701;28;20302;-65
2021/11/09 00:19:12;;;;;;;13.35;6.20;;;-1.50;99.90;;;;;;2082538;28;20202;-65
2021/11/09 00:20:17;;;;;;;14.53;6.97;;;-1.50;99.90;;;;;;2082698;28;20648;-65
2021/11/09 00:21:20;;;;;;;12.93;6.35;;;-1.50;99.90;;;;;;2082401;28;20183;-65
2021/11/09 00:22:22;;;;;;;17.27;7.07;;;-1.60;99.80;;;;;;2082580;28;20191;-65
2021/11/09 00:23:23;;;;;;;11.13;6.47;;;-1.60;99.90;;;;;;2082591;28;20186;-65
2021/11/09 00:24:24;;;;;;;14.20;6.23;;;-1.60;99.90;;;;;;2082518;28;20550;-65
2021/11/09 00:25:26;;;;;;;13.37;6.27;;;-1.60;99.90;;;;;;2082650;28;20179;-65
2021/11/09 00:26:28;;;;;;;11.48;7.00;;;-1.60;99.90;;;;;;2082556;28;20217;-65
2021/11/09 00:27:29;;;;;;;16.50;6.72;;;-1.60;99.90;;;;;;2082577;28;20262;-65
2021/11/09 00:28:30;;;;;;;17.50;6.03;;;-1.60;99.90;;;;;;2082495;28;20203;-65
2021/11/09 00:29:31;;;;;;;12.27;6.60;;;-1.60;99.90;;;;;;2082483;28;20173;-65
2021/11/09 00:30:32;;;;;;;13.13;6.47;;;-1.60;99.90;;;;;;2082469;28;20179;-65
2021/11/09 00:31:34;;;;;;;14.48;6.65;;;-1.60;99.90;;;;;;2082079;28;20196;-65
2021/11/09 00:32:37;;;;;;;15.82;7.20;;;-1.60;99.90;;;;;;2082671;28;20191;-65
2021/11/09 00:33:40;;;;;;;15.38;6.20;;;-1.60;99.90;;;;;;2082433;28;20188;-65
2021/11/09 00:34:40;;;;;;;16.95;6.57;;;-1.60;99.90;;;;;;2082480;28;20188;-65
2021/11/09 00:35:41;;;;;;;10.93;6.10;;;-1.60;99.90;;;;;;2082454;28;20322;-65
2021/11/09 00:36:42;;;;;;;16.73;6.80;;;-1.60;99.90;;;;;;2082693;28;20208;-65
2021/11/09 00:37:44;;;;;;;13.73;5.87;;;-1.60;99.90;;;;;;2082358;28;20953;-65
2021/11/09 00:38:46;;;;;;;13.85;6.13;;;-1.60;99.90;;;;;;2082441;28;20194;-65
2021/11/09 00:39:47;;;;;;;15.25;6.78;;;-1.60;99.90;;;;;;2082435;28;20266;-65
2021/11/09 00:40:48;;;;;;;12.55;5.78;;;-1.60;99.90;;;;;;2082365;28;20519;-65
2021/11/09 00:41:50;;;;;;;12.03;6.17;;;-1.60;99.90;;;;;;2082300;28;20197;-65
2021/11/09 00:42:51;;;;;;;11.43;6.53;;;-1.60;99.90;;;;;;2082445;28;20183;-65
2021/11/09 00:43:51;;;;;;;18.90;7.60;;;-1.60;99.90;;;;;;2082442;28;20193;-65
2021/11/09 00:44:52;;;;;;;12.43;6.83;;;-1.60;99.90;;;;;;2082434;28;20600;-65
2021/11/09 00:45:53;;;;;;;12.33;7.20;;;-1.60;99.90;;;;;;2081813;28;20204;-64
2021/11/09 00:46:54;;;;;;;13.43;6.90;;;-1.60;99.90;;;;;;2081950;28;20683;-65
2021/11/09 00:47:56;;;;;;;12.48;6.40;;;-1.60;99.90;;;;;;2082313;28;20187;-65
2021/11/09 00:48:57;;;;;;;11.02;6.45;;;-1.60;99.90;;;;;;2082525;28;20264;-65
2021/11/09 00:49:58;;;;;;;13.50;6.13;;;-1.60;99.90;;;;;;2082315;28;20673;-65
2021/11/09 00:50:58;;;;;;;12.80;6.55;;;-1.60;99.90;;;;;;2082299;28;20193;-65
2021/11/09 00:52:01;;;;;;;13.97;6.60;;;-1.60;99.90;;;;;;2082262;28;20562;-65
2021/11/09 00:53:04;;;;;;;12.40;6.15;;;-1.60;99.90;;;;;;2082451;28;20559;-65
2021/11/09 00:54:05;;;;;;;13.35;5.97;;;-1.70;99.90;;;;;;2082356;28;20184;-65
2021/11/09 00:55:07;;;;;;;13.00;6.37;;;-1.70;99.90;;;;;;2082328;28;20597;-65
2021/11/09 00:56:08;;;;;;;11.90;6.03;;;-1.70;99.90;;;;;;2082077;28;20746;-65
2021/11/09 00:57:09;;;;;;;9.30;5.70;;;-1.70;99.70;;;;;;2082353;28;20188;-65
2021/11/09 00:58:10;;;;;;;10.87;5.33;;;-1.80;99.60;;;;;;2082223;28;20214;-65
2021/11/09 00:59:11;;;;;;;12.38;5.43;;;-1.80;99.60;;;;;;2082209;28;20195;-65
2021/11/09 01:00:18;;;;;;;12.25;5.93;;;-1.80;99.50;;;;;;2082328;28;20211;-65
2021/11/09 01:01:19;;;;;;;10.43;5.30;;;-1.80;99.40;;;;;;2082088;28;20215;-65
2021/11/09 01:02:20;;;;;;;13.70;5.50;;;-1.80;99.30;;;;;;2082346;28;20177;-65
2021/11/09 01:03:22;;;;;;;10.50;5.82;;;-1.80;99.30;;;;;;2082381;28;20174;-65
2021/11/09 01:04:23;;;;;;;11.20;5.80;;;-1.80;99.30;;;;;;2082184;28;20195;-65
2021/11/09 01:05:26;;;;;;;10.13;5.22;;;-1.90;99.40;;;;;;2082250;28;20196;-65
2021/11/09 01:06:27;;;;;;;13.07;5.63;;;-1.80;99.50;;;;;;2082354;28;20190;-65
2021/11/09 01:07:28;;;;;;;14.97;5.50;;;-1.90;99.60;;;;;;2082375;28;20191;-65
2021/11/09 01:08:30;;;;;;;12.97;6.57;;;-1.90;99.60;;;;;;2082266;28;20468;-65
2021/11/09 01:09:31;;;;;;;14.27;6.18;;;-1.90;99.60;;;;;;2082149;28;20279;-65
2021/11/09 01:10:39;;;;;;;11.77;5.90;;;-1.90;99.60;;;;;;2082260;28;20186;-64
2021/11/09 01:11:40;;;;;;;9.77;5.43;;;-1.90;99.50;;;;;;2082044;28;20678;-65
2021/11/09 01:12:41;;;;;;;16.30;6.63;;;-1.90;99.60;;;;;;2082189;28;20194;-65
2021/11/09 01:13:41;;;;;;;12.07;6.07;;;-1.90;99.60;;;;;;2082192;28;20196;-66
2021/11/09 01:14:43;;;;;;;13.17;5.50;;;-1.90;99.60;;;;;;2082138;28;20190;-65
2021/11/09 01:15:49;;;;;;;14.43;6.10;;;-1.90;99.40;;;;;;2082064;28;20186;-66
2021/11/09 01:16:51;;;;;;;12.27;6.40;;;-1.90;99.30;;;;;;2082255;28;20171;-65
2021/11/09 01:17:54;;;;;;;9.45;5.60;;;-1.90;99.20;;;;;;2082109;28;20183;-66
2021/11/09 01:18:58;;;;;;;11.02;5.93;;;-1.90;99.40;;;;;;2081706;28;20192;-65
2021/11/09 01:19:59;;;;;;;12.00;5.75;;;-1.90;99.60;;;;;;2081989;28;20698;-66
2021/11/09 01:21:00;;;;;;;14.43;6.35;;;-1.90;99.70;;;;;;2081896;28;20178;-65
2021/11/09 01:22:03;;;;;;;11.32;5.22;;;-1.90;99.70;;;;;;2082105;28;20229;-65
2021/11/09 01:23:04;;;;;;;13.75;5.63;;;-1.90;99.60;;;;;;2082245;28;20184;-65
2021/11/09 01:24:05;;;;;;;12.63;5.97;;;-1.90;99.60;;;;;;2082113;28;20283;-65
2021/11/09 01:25:08;;;;;;;11.50;6.43;;;-2.00;99.60;;;;;;2082062;28;20423;-66
2021/11/09 01:26:10;;;;;;;19.50;6.75;;;-1.90;99.70;;;;;;2081975;28;20180;-65
2021/11/09 01:27:11;;;;;;;11.00;5.22;;;-1.90;99.70;;;;;;2082459;28;20184;-65
2021/11/09 01:28:12;;;;;;;12.93;6.17;;;-1.90;99.80;;;;;;2081996;28;20702;-65
2021/11/09 01:29:14;;;;;;;16.42;5.85;;;-1.90;99.80;;;;;;2082106;28;20184;-65
2021/11/09 01:30:19;;;;;;;13.98;6.25;;;-1.90;99.90;;;;;;2082000;28;20182;-65
2021/11/09 01:31:21;;;;;;;10.95;5.47;;;-1.90;99.90;;;;;;2081886;28;20164;-65
2021/11/09 01:32:22;;;;;;;11.70;5.93;;;-1.90;99.90;;;;;;2082016;28;20222;-65
2021/11/09 01:33:23;;;;;;;11.57;5.97;;;-1.90;99.90;;;;;;2082167;28;20191;-65
2021/11/09 01:34:24;;;;;;;12.70;5.53;;;-1.80;99.90;;;;;;2082038;28;20179;-65
2021/11/09 01:35:24;;;;;;;13.33;6.33;;;-1.80;99.90;;;;;;2082163;28;20553;-65
2021/11/09 01:36:26;;;;;;;15.70;7.60;;;-1.90;99.90;;;;;;2082050;28;20530;-65
2021/11/09 01:37:27;;;;;;;12.85;6.30;;;-1.80;99.90;;;;;;2081990;28;20190;-65
2021/11/09 01:38:28;;;;;;;18.37;6.63;;;-1.80;99.90;;;;;;2081809;28;20195;-65
2021/11/09 01:39:28;;;;;;;13.90;6.10;;;-1.80;99.90;;;;;;2081924;28;20706;-65
2021/11/09 01:40:31;;;;;;;13.10;5.97;;;-1.80;99.90;;;;;;2081984;28;20256;-65
2021/11/09 01:41:32;;;;;;;13.05;6.15;;;-1.80;99.90;;;;;;2081763;28;20180;-65
2021/11/09 01:42:34;;;;;;;15.35;6.22;;;-1.80;99.90;;;;;;2081813;28;20222;-65
2021/11/09 01:43:38;;;;;;;11.40;5.75;;;-1.80;99.90;;;;;;2081980;28;20215;-65
2021/11/09 01:44:39;;;;;;;10.48;5.53;;;-1.80;99.90;;;;;;2082042;28;20220;-65
2021/11/09 01:45:41;;;;;;;15.07;6.07;;;-1.80;99.90;;;;;;2081926;28;20170;-65
2021/11/09 01:46:44;;;;;;;13.10;6.10;;;-1.80;99.90;;;;;;2081708;28;20193;-65
2021/11/09 01:47:46;;;;;;;9.38;5.53;;;-1.80;99.90;;;;;;2081683;28;20706;-65
2021/11/09 01:48:47;;;;;;;12.45;5.85;;;-1.80;99.90;;;;;;2081971;28;20188;-65
2021/11/09 01:49:48;;;;;;;16.65;5.93;;;-1.80;99.90;;;;;;2081753;28;20212;-65
2021/11/09 01:50:58;;;;;;;15.43;6.40;;;-1.80;99.90;;;;;;2081919;28;20180;-65
2021/11/09 01:51:59;;;;;;;14.57;6.35;;;-1.90;99.90;;;;;;2081971;28;20226;-65
2021/11/09 01:53:00;;;;;;;11.50;5.83;;;-1.90;99.80;;;;;;2081798;28;20185;-65
2021/11/09 01:54:03;;;;;;;9.98;6.07;;;-1.90;99.60;;;;;;2081834;28;20195;-65
2021/11/09 01:55:07;;;;;;;13.13;5.63;;;-1.90;99.50;;;;;;2081890;28;20196;-65
2021/11/09 01:56:13;;;;;;;11.73;5.43;;;-1.90;99.50;;;;;;2081077;28;20199;-65
2021/11/09 01:57:13;;;;;;;9.57;5.15;;;-1.90;99.40;;;;;;2081056;28;20620;-65
2021/11/09 01:58:15;;;;;;;12.77;6.73;;;-2.00;99.40;;;;;;2081660;28;20215;-65
2021/11/09 01:59:15;;;;;;;13.77;5.85;;;-2.00;99.40;;;;;;2081652;28;20187;-65
2021/11/09 02:00:24;;;;;;;13.80;5.80;;;-2.00;99.40;;;;;;2081857;28;20264;-65
2021/11/09 02:01:27;;;;;;;17.90;6.68;;;-1.90;99.60;;;;;;2081699;28;20472;-65
2021/11/09 02:02:28;;;;;;;13.38;5.25;;;-2.00;99.50;;;;;;2081862;28;20704;-65
2021/11/09 02:03:31;;;;;;;12.37;5.30;;;-2.00;99.40;;;;;;2081651;28;20217;-65
2021/11/09 02:04:32;;;;;;;12.15;5.72;;;-2.00;99.30;;;;;;2081835;28;20175;-65
2021/11/09 02:05:33;;;;;;;11.00;5.43;;;-2.00;99.30;;;;;;2081699;28;20193;-65
2021/11/09 02:06:35;;;;;;;12.88;5.63;;;-2.00;99.20;;;;;;2081806;28;20422;-66
2021/11/09 02:07:42;;;;;;;12.10;5.68;;;-2.10;99.00;;;;;;2081669;28;20568;-65
2021/11/09 02:08:43;;;;;;;12.68;5.53;;;-2.10;99.00;;;;;;2081804;28;20172;-65
2021/11/09 02:09:43;;;;;;;9.73;5.00;;;-2.10;99.00;;;;;;2081629;28;20192;-65
2021/11/09 02:10:47;;;;;;;12.33;5.13;;;-2.10;99.00;;;;;;2081603;28;20183;-65
2021/11/09 02:11:48;;;;;;;7.75;5.10;;;-2.20;98.90;;;;;;2081506;28;20303;-65
2021/11/09 02:12:49;;;;;;;15.68;5.90;;;-2.20;98.80;;;;;;2081815;28;20186;-66
2021/11/09 02:13:50;;;;;;;10.43;5.78;;;-2.20;98.70;;;;;;2081838;28;20183;-65
2021/11/09 02:14:51;;;;;;;12.48;5.43;;;-2.30;98.70;;;;;;2081624;28;20181;-65
2021/11/09 02:15:53;;;;;;;11.90;5.57;;;-2.30;98.70;;;;;;2081820;28;20642;-65
2021/11/09 02:16:53;;;;;;;11.55;5.35;;;-2.30;98.70;;;;;;2081903;28;20640;-65
2021/11/09 02:17:55;;;;;;;12.23;5.13;;;-2.30;98.70;;;;;;2081638;28;20179;-65
2021/11/09 02:18:56;;;;;;;7.82;5.03;;;-2.30;98.70;;;;;;2081839;28;20217;-66
2021/11/09 02:19:58;;;;;;;10.45;4.70;;;-2.40;98.70;;;;;;2081514;28;20303;-65
2021/11/09 02:21:06;;;;;;;9.30;5.25;;;-2.30;98.70;;;;;;2081759;28;20261;-66
2021/11/09 02:22:07;;;;;;;10.63;5.22;;;-2.30;98.80;;;;;;2081673;28;20167;-66
2021/11/09 02:23:08;;;;;;;8.40;5.40;;;-2.30;98.70;;;;;;2081141;28;20220;-66
2021/11/09 02:24:09;;;;;;;11.37;5.17;;;-2.30;98.60;;;;;;2080963;28;20773;-66
2021/11/09 02:25:14;;;;;;;10.88;4.75;;;-2.30;98.70;;;;;;2081841;28;20235;-66
2021/11/09 02:26:21;;;;;;;8.52;5.20;;;-2.30;98.80;;;;;;2081784;28;20253;-66
2021/11/09 02:27:21;;;;;;;9.52;5.22;;;-2.30;98.90;;;;;;2081673;28;20648;-65
2021/11/09 02:28:23;;;;;;;13.47;5.63;;;-2.30;98.90;;;;;;2081425;28;20209;-66
2021/11/09 02:29:23;;;;;;;14.85;5.97;;;-2.30;98.90;;;;;;2081506;28;20181;-66
2021/11/09 02:30:26;;;;;;;9.67;4.90;;;-2.30;98.80;;;;;;2081493;28;20209;-66
2021/11/09 02:31:30;;;;;;;11.20;5.13;;;-2.30;98.70;;;;;;2081343;28;20170;-66
2021/11/09 02:32:31;;;;;;;12.73;5.20;;;-2.30;98.70;;;;;;2081507;28;20218;-66
2021/11/09 02:33:33;;;;;;;8.05;4.80;;;-2.30;98.70;;;;;;2081352;28;20709;-66
2021/11/09 02:34:34;;;;;;;11.68;5.50;;;-2.30;98.70;;;;;;2081359;28;20214;-66
2021/11/09 02:35:35;;;;;;;12.97;5.70;;;-2.30;98.70;;;;;;2081639;28;20569;-65
2021/11/09 02:36:36;;;;;;;15.40;6.93;;;-2.30;99.00;;;;;;2081370;28;20725;-65
2021/11/09 02:37:37;;;;;;;16.20;6.20;;;-2.30;99.30;;;;;;2081430;28;20179;-65
2021/11/09 02:38:38;;;;;;;11.20;5.43;;;-2.30;99.50;;;;;;2081464;28;20238;-65
2021/11/09 02:39:39;;;;;;;11.50;6.10;;;-2.30;99.70;;;;;;2081491;28;20215;-65
2021/11/09 02:40:40;;;;;;;9.03;5.80;;;-2.20;99.80;;;;;;2081448;28;20191;-64
2021/11/09 02:41:41;;;;;;;12.10;5.80;;;-2.20;99.90;;;;;;2081048;28;20203;-65
2021/11/09 02:42:46;;;;;;;12.03;6.00;;;-2.20;99.90;;;;;;2081282;28;20211;-65
2021/11/09 02:43:47;;;;;;;13.35;5.18;;;-2.20;99.90;;;;;;2081506;28;20164;-65
2021/11/09 02:44:57;;;;;;;11.43;5.87;;;-2.20;99.80;;;;;;2081235;28;20643;-65
2021/11/09 02:47:59;;;;;;;13.77;4.82;;;-2.20;99.50;;;;;;2072015;28;20196;-65
2021/11/09 02:49:16;;;;;;;14.65;5.18;;;-2.20;99.50;;;;;;2072113;28;20230;-65
2021/11/09 02:50:20;;;;;;;19.08;5.15;;;-2.30;99.60;;;;;;2078687;28;20717;-65
2021/11/09 02:52:06;;;;;;;11.23;5.30;;;-2.20;99.80;;;;;;2080978;28;20174;-65
2021/11/09 02:52:53;;;;;;;13.32;5.63;;;-2.20;99.90;;;;;;2085987;28;20195;-65
2021/11/09 02:54:08;;;;;;;12.63;5.65;;;-2.20;99.90;;;;;;2081407;28;20217;-65
2021/11/09 02:55:11;;;;;;;9.30;5.40;;;-2.20;99.90;;;;;;2081373;28;20189;-64
2021/11/09 02:56:19;;;;;;;11.40;6.03;;;-2.20;99.60;;;;;;2081394;28;20195;-65
2021/11/09 02:57:28;;;;;;;9.60;4.90;;;-2.30;99.50;;;;;;2081350;28;20179;-65
2021/11/09 02:58:47;;;;;;;11.77;5.40;;;-2.30;99.30;;;;;;2081363;28;20207;-65
2021/11/09 03:03:25;;;;;;;9.93;5.40;;;-2.40;98.80;;;;;;2080562;28;20178;-65
2021/11/09 03:06:39;;;;;;;13.83;5.40;;;-2.40;99.10;;;;;;2081378;28;20179;-65
2021/11/09 03:07:56;;;;;;;10.82;5.40;;;-2.40;99.20;;;;;;2081062;28;20637;-65
2021/11/09 03:09:09;;;;;;;10.30;4.82;;;-2.40;99.40;;;;;;2080961;28;20185;-65
2021/11/09 03:11:29;;;;;;;8.23;4.65;;;-2.40;99.50;;;;;;2081159;28;20583;-66
2021/11/09 03:12:37;;;;;;;11.40;5.57;;;-2.30;99.70;;;;;;2081088;28;20543;-64
2021/11/09 03:13:39;;;;;;;9.50;5.15;;;-2.30;99.70;;;;;;2081228;28;20180;-64
2021/11/09 03:14:41;;;;;;;10.07;5.45;;;-2.40;99.60;;;;;;2081297;28;20193;-65
2021/11/09 03:15:42;;;;;;;14.02;5.88;;;-2.30;99.50;;;;;;2081267;28;20212;-64
2021/11/09 03:16:44;;;;;;;12.17;6.00;;;-2.40;99.40;;;;;;2081264;28;20223;-64
2021/11/09 03:18:09;;;;;;;10.90;5.68;;;-2.30;99.50;;;;;;2081176;28;20184;-65
2021/11/09 03:19:29;;;;;;;11.90;5.15;;;-2.30;99.60;;;;;;2081052;28;20700;-64
2021/11/09 03:40:31;;;;;;;10.95;5.20;;;-2.30;99.90;;;;;;2081437;28;20175;-66
2021/11/09 03:44:32;;;;;;;7.22;4.47;;;-2.30;99.80;;;;;;2080859;28;20577;-65
2021/11/09 03:45:33;;;;;;;7.97;5.13;;;-2.40;99.60;;;;;;2081066;28;20645;-66
2021/11/09 03:46:34;;;;;;;10.87;5.00;;;-2.40;99.60;;;;;;2081153;28;20469;-66
2021/11/09 03:47:40;;;;;;;10.45;4.90;;;-2.40;99.50;;;;;;2081137;28;20183;-66
2021/11/09 03:48:40;;;;;;;9.50;5.25;;;-2.40;99.50;;;;;;2073248;28;20667;-66
2021/11/09 03:49:42;;;;;;;12.10;5.23;;;-2.40;99.40;;;;;;2080973;28;20205;-66
2021/11/09 03:50:46;;;;;;;8.43;4.50;;;-2.40;99.20;;;;;;2080929;28;20264;-66
2021/11/09 03:51:47;;;;;;;11.73;5.30;;;-2.50;99.20;;;;;;2080693;28;20558;-65
2021/11/09 03:53:49;;;;;;;9.18;5.32;;;-2.40;99.20;;;;;;2081033;28;20181;-65
2021/11/09 03:54:58;;;;;;;10.73;4.73;;;-2.40;99.20;;;;;;2081002;28;20561;-66
2021/11/09 03:56:10;;;;;;;7.25;5.00;;;-2.40;99.10;;;;;;2081101;28;20179;-66
2021/11/09 03:57:17;;;;;;;9.68;5.05;;;-2.50;99.00;;;;;;2080928;28;20192;-66
2021/11/09 03:59:40;;;;;;;8.30;4.93;;;-2.40;98.90;;;;;;2080997;28;20648;-66
2021/11/09 04:00:57;;;;;;;9.40;4.43;;;-2.50;98.90;;;;;;2081049;28;20176;-66
2021/11/09 04:05:32;;;;;;;7.68;4.60;;;-2.50;98.90;;;;;;2080939;28;20578;-65
2021/11/09 04:06:37;;;;;;;9.68;5.03;;;-2.50;99.00;;;;;;2081146;28;20169;-66
2021/11/09 04:10:14;;;;;;;9.13;5.10;;;-2.50;99.60;;;;;;2081096;28;20258;-66
2021/11/09 04:11:21;;;;;;;10.52;5.03;;;-2.40;99.70;;;;;;2080759;28;20174;-66
2021/11/09 04:15:25;;;;;;;16.10;5.23;;;-2.40;99.40;;;;;;2081114;28;20189;-64
2021/11/09 04:17:12;;;;;;;9.23;4.57;;;-2.40;99.20;;;;;;2081102;28;20639;-64
2021/11/09 04:18:27;;;;;;;12.25;5.15;;;-2.50;99.20;;;;;;2080976;28;20245;-64
2021/11/09 04:19:41;;;;;;;12.98;5.20;;;-2.40;99.30;;;;;;2081049;28;20202;-64
2021/11/09 04:27:53;;;;;;;15.52;6.28;;;-2.30;99.90;;;;;;2081313;28;20201;-65
2021/11/09 04:30:31;;;;;;;10.60;5.95;;;-2.20;99.90;;;;;;2082412;28;20182;-66
2021/11/09 04:31:49;;;;;;;15.82;6.22;;;-2.10;99.90;;;;;;2082266;28;20175;-65
2021/11/09 04:39:41;;;;;;;11.05;6.03;;;-2.20;99.90;;;;;;2082371;28;20175;-66
2021/11/09 04:46:40;;;;;;;18.05;7.20;;;-2.20;99.90;;;;;;2082217;28;20171;-66
2021/11/09 04:48:47;;;;;;;12.20;6.25;;;-2.10;99.90;;;;;;2082397;28;20207;-64
2021/11/09 05:02:54;;;;;;;16.42;8.65;;;-2.30;99.90;;;;;;2082208;28;20638;-66
2021/11/09 05:09:17;;;;;;;17.50;10.48;;;-2.40;99.80;;;;;;2082112;28;20593;-66
2021/11/09 05:10:21;;;;;;;18.90;7.82;;;-2.50;99.70;;;;;;2082259;28;20174;-66
2021/11/09 05:11:22;;;;;;;14.30;7.88;;;-2.50;99.60;;;;;;2081778;28;20663;-66
2021/11/09 05:12:23;;;;;;;11.63;7.27;;;-2.50;99.50;;;;;;2082123;28;20184;-66
2021/11/09 05:13:24;;;;;;;13.03;7.77;;;-2.60;99.40;;;;;;2082155;28;20531;-65
2021/11/09 05:14:25;;;;;;;15.10;8.52;;;-2.60;99.20;;;;;;2082021;28;20185;-66
2021/11/09 05:15:26;;;;;;;15.60;8.03;;;-2.60;99.10;;;;;;2082137;28;20626;-65
2021/11/09 05:16:27;;;;;;;13.40;7.68;;;-2.60;99.00;;;;;;2082168;28;20177;-66
2021/11/09 05:17:27;;;;;;;13.80;8.37;;;-2.70;99.00;;;;;;2082083;28;20245;-65
2021/11/09 05:18:28;;;;;;;16.03;7.87;;;-2.70;99.00;;;;;;2082059;28;20208;-65
2021/11/09 05:19:29;;;;;;;16.87;8.07;;;-2.70;99.20;;;;;;2082136;28;20175;-66
2021/11/09 05:20:30;;;;;;;20.70;8.70;;;-2.70;99.40;;;;;;2081959;28;20185;-66
2021/11/09 05:21:32;;;;;;;15.63;7.90;;;-2.70;99.40;;;;;;2081901;28;20693;-65
2021/11/09 05:22:33;;;;;;;14.73;8.00;;;-2.70;99.40;;;;;;2082056;28;20220;-66
2021/11/09 05:23:35;;;;;;;16.50;6.90;;;-2.70;99.60;;;;;;2082123;28;20183;-65
2021/11/09 05:24:36;;;;;;;12.90;8.00;;;-2.70;99.60;;;;;;2082020;28;20185;-65
2021/11/09 05:25:36;;;;;;;16.63;7.78;;;-2.70;99.70;;;;;;2082192;28;20777;-65
2021/11/09 05:26:44;;;;;;;16.63;7.00;;;-2.70;99.80;;;;;;2081829;28;20288;-66
2021/11/09 05:27:46;;;;;;;13.20;6.40;;;-2.70;99.90;;;;;;2079958;28;20376;-66
2021/11/09 05:28:47;;;;;;;13.75;6.22;;;-2.70;99.90;;;;;;2081872;28;20196;-66
2021/11/09 05:29:48;;;;;;;9.57;5.37;;;-2.70;99.90;;;;;;2081922;28;20186;-66
2021/11/09 05:30:50;;;;;;;15.63;6.97;;;-2.60;99.90;;;;;;2081904;28;20189;-66
2021/11/09 05:31:57;;;;;;;12.48;6.75;;;-2.60;99.90;;;;;;2081774;28;20182;-66
2021/11/09 05:33:00;;;;;;;12.55;5.78;;;-2.60;99.90;;;;;;2081550;28;20193;-66
2021/11/09 05:34:02;;;;;;;10.38;6.00;;;-2.60;99.90;;;;;;2081979;28;20265;-66
2021/11/09 05:35:04;;;;;;;14.90;5.80;;;-2.60;99.90;;;;;;2081838;28;20183;-66
2021/11/09 05:36:07;;;;;;;13.30;6.45;;;-2.60;99.90;;;;;;2081923;28;20198;-65
2021/11/09 05:37:10;;;;;;;28.80;14.90;;;-2.60;99.90;;;;;;2081791;28;20207;-66
2021/11/09 05:38:12;;;;;;;17.33;9.90;;;-2.60;99.90;;;;;;2081716;28;20696;-66
2021/11/09 05:39:19;;;;;;;16.23;9.15;;;-2.60;99.90;;;;;;2081662;28;20208;-66
2021/11/09 05:40:27;;;;;;;17.00;8.50;;;-2.70;99.80;;;;;;2082059;28;20216;-66
2021/11/09 05:41:32;;;;;;;13.80;7.55;;;-2.70;99.80;;;;;;2081506;28;20564;-65
2021/11/09 05:42:34;;;;;;;18.05;8.27;;;-2.70;99.80;;;;;;2081868;28;20241;-66
2021/11/09 05:43:35;;;;;;;18.75;7.82;;;-2.70;99.80;;;;;;2081734;28;20203;-66
2021/11/09 05:44:35;;;;;;;18.50;7.13;;;-2.70;99.70;;;;;;2081847;28;20619;-66
2021/11/09 05:45:36;;;;;;;11.23;6.77;;;-2.70;99.70;;;;;;2081812;28;20179;-66
2021/11/09 05:46:39;;;;;;;13.73;6.80;;;-2.70;99.60;;;;;;2081875;28;20534;-66
2021/11/09 05:47:40;;;;;;;20.85;6.72;;;-2.70;99.50;;;;;;2081816;28;20186;-66
2021/11/09 05:48:41;;;;;;;27.27;10.57;;;-2.70;99.50;;;;;;2081887;28;20645;-65
2021/11/09 05:49:42;;;;;;;15.60;7.15;;;-2.70;99.70;;;;;;2081811;28;20198;-65
2021/11/09 05:50:43;;;;;;;14.73;6.43;;;-2.70;99.90;;;;;;2081779;28;20223;-66
2021/11/09 05:51:43;;;;;;;10.17;5.50;;;-2.60;99.90;;;;;;2081490;28;20181;-65
2021/11/09 05:52:44;;;;;;;22.33;6.73;;;-2.60;99.90;;;;;;2081778;28;20252;-66
2021/11/09 05:53:45;;;;;;;15.10;6.50;;;-2.60;99.90;;;;;;2081767;28;20265;-65
2021/11/09 05:54:46;;;;;;;10.93;6.20;;;-2.60;99.90;;;;;;2081806;28;20185;-64
2021/11/09 05:55:46;;;;;;;10.23;6.33;;;-2.60;99.90;;;;;;2082050;28;20186;-65
2021/11/09 05:56:47;;;;;;;13.80;5.73;;;-2.60;99.80;;;;;;2081893;28;20236;-66
2021/11/09 05:57:48;;;;;;;11.13;5.63;;;-2.60;99.70;;;;;;2081637;28;20186;-65
2021/11/09 05:58:48;;;;;;;9.53;5.67;;;-2.60;99.60;;;;;;2081944;28;20178;-65
2021/11/09 05:59:49;;;;;;;11.87;5.23;;;-2.60;99.70;;;;;;2081699;28;20603;-66
2021/11/09 06:00:50;;;;;;;10.43;6.20;;;-2.60;99.80;;;;;;2081744;28;20182;-65
2021/11/09 06:01:50;;;;;;;12.13;5.57;;;-2.60;99.90;;;;;;2081479;28;20176;-66
2021/11/09 06:02:51;;;;;;;8.60;4.90;;;-2.60;99.90;;;;;;2081712;28;20187;-66
2021/11/09 06:03:53;;;;;;;9.70;5.40;;;-2.60;99.90;;;;;;2081837;28;20214;-65
2021/11/09 06:04:54;;;;;;;8.98;5.10;;;-2.60;99.90;;;;;;2081671;28;20666;-66
2021/11/09 06:05:56;;;;;;;12.45;4.32;;;-2.70;99.80;;;;;;2081442;28;20657;-65
2021/11/09 06:06:56;;;;;;;8.27;4.80;;;-2.60;99.80;;;;;;2081700;28;20202;-66
2021/11/09 06:07:57;;;;;;;12.40;6.23;;;-2.60;99.90;;;;;;2081556;28;20204;-64
2021/11/09 06:08:58;;;;;;;10.47;6.00;;;-2.60;99.80;;;;;;2081644;28;20189;-65
2021/11/09 06:09:58;;;;;;;10.77;6.17;;;-2.60;99.70;;;;;;2081813;28;20178;-66
2021/11/09 06:10:59;;;;;;;11.70;5.30;;;-2.70;99.50;;;;;;2081546;28;20265;-66
2021/11/09 06:12:00;;;;;;;12.67;5.20;;;-2.70;99.40;;;;;;2081637;28;20331;-65
2021/11/09 06:13:01;;;;;;;6.97;4.43;;;-2.70;99.20;;;;;;2081645;28;20300;-66
2021/11/09 06:14:02;;;;;;;11.07;4.77;;;-2.80;99.00;;;;;;2081613;28;20281;-66
2021/11/09 06:15:04;;;;;;;12.82;5.40;;;-2.80;98.90;;;;;;2081668;28;20190;-66
2021/11/09 06:16:05;;;;;;;14.38;5.10;;;-2.80;99.10;;;;;;2081543;28;20189;-66
2021/11/09 06:17:06;;;;;;;14.17;5.90;;;-2.80;99.10;;;;;;2081677;28;20187;-65
2021/11/09 06:18:07;;;;;;;11.03;5.00;;;-2.80;99.30;;;;;;2081707;28;20256;-65
2021/11/09 06:19:08;;;;;;;13.60;5.33;;;-2.80;99.40;;;;;;2081619;28;20188;-66
2021/11/09 06:20:09;;;;;;;13.73;4.77;;;-2.80;99.60;;;;;;2081542;28;20472;-66
2021/11/09 06:21:10;;;;;;;13.90;5.18;;;-2.70;99.70;;;;;;2088981;28;20266;-65
2021/11/09 06:22:12;;;;;;;8.63;4.80;;;-2.70;99.60;;;;;;2089242;28;20221;-65
2021/11/09 06:23:13;;;;;;;8.95;4.93;;;-2.80;99.40;;;;;;2081473;28;20683;-65
2021/11/09 06:24:14;;;;;;;8.37;4.97;;;-2.70;99.30;;;;;;2081610;28;20189;-65
2021/11/09 06:25:15;;;;;;;8.35;4.90;;;-2.70;99.30;;;;;;2081614;28;20186;-65
2021/11/09 06:26:16;;;;;;;12.23;5.13;;;-2.70;99.20;;;;;;2081725;28;20553;-65
2021/11/09 06:27:18;;;;;;;8.30;4.65;;;-2.70;99.20;;;;;;2081523;28;20181;-65
2021/11/09 06:28:20;;;;;;;11.20;5.35;;;-2.70;99.30;;;;;;2081585;28;20203;-65
2021/11/09 06:29:20;;;;;;;12.07;5.63;;;-2.70;99.40;;;;;;2081570;28;20173;-65
2021/11/09 06:30:22;;;;;;;11.17;5.33;;;-2.70;99.50;;;;;;2081659;28;20539;-65
2021/11/09 06:31:24;;;;;;;8.32;5.22;;;-2.70;99.50;;;;;;2081317;28;20182;-65
2021/11/09 06:32:24;;;;;;;11.50;6.03;;;-2.70;99.60;;;;;;2081517;28;20180;-65
2021/11/09 06:33:25;;;;;;;14.83;8.13;;;-2.60;99.70;;;;;;2081486;28;20178;-65
2021/11/09 06:34:27;;;;;;;14.27;6.90;;;-2.60;99.60;;;;;;2081577;28;20178;-65
2021/11/09 06:35:28;;;;;;;11.00;7.45;;;-2.60;99.50;;;;;;2081467;28;20254;-66
2021/11/09 06:36:29;;;;;;;10.50;6.23;;;-2.60;99.50;;;;;;2081548;28;20177;-65
2021/11/09 06:37:31;;;;;;;14.30;6.72;;;-2.60;99.50;;;;;;2081302;28;20190;-66
2021/11/09 06:38:32;;;;;;;13.68;6.93;;;-2.60;99.60;;;;;;2081435;28;20203;-65
2021/11/09 06:39:33;;;;;;;14.55;7.55;;;-2.50;99.70;;;;;;2081454;28;20179;-65
2021/11/09 06:40:34;;;;;;;17.60;7.10;;;-2.50;99.90;;;;;;2081550;28;20207;-66
2021/11/09 06:41:35;;;;;;;10.73;5.97;;;-2.50;99.90;;;;;;2081157;28;20193;-65
2021/11/09 06:42:36;;;;;;;12.40;6.90;;;-2.40;99.90;;;;;;2081428;28;20175;-65
2021/11/09 06:43:37;;;;;;;15.45;8.02;;;-2.50;99.90;;;;;;2081065;28;20181;-65
2021/11/09 06:44:37;;;;;;;11.90;7.73;;;-2.50;99.80;;;;;;2080794;28;20196;-66
2021/11/09 06:45:38;;;;;;;17.47;8.73;;;-2.50;99.70;;;;;;2081427;28;20175;-66
2021/11/09 06:46:39;;;;;;;14.82;8.13;;;-2.40;99.50;;;;;;2081382;28;20557;-66
2021/11/09 06:47:41;;;;;;;16.13;8.13;;;-2.40;99.40;;;;;;2081324;28;20189;-65
2021/11/09 06:48:44;;;;;;;18.65;8.23;;;-2.40;99.50;;;;;;2081377;28;20219;-65